Time;durP1;ratioP1;P1;durP2;ratioP2;P2;SDS_P1;SDS_P2;PMS_P1;PMS_P2;Temp;Humidity;BMP_temperature;BMP_pressure;BME280_temperature;BME280_humidity;BME280_pressure;Samples;Min_cycle;Max_cycle;Signal;HPM_P1;HPM_P2
2023/12/16 00:01:26;;;;;;;3.03;0.60;;;;;;;13.43;36.72;97436.00;5077715;28;20020;-26
2023/12/16 00:03:51;;;;;;;3.88;0.82;;;;;;;13.57;36.18;97419.34;5081288;28;20424;-26
2023/12/16 00:06:20;;;;;;;3.67;0.73;;;;;;;13.71;36.30;97408.16;5081160;28;20028;-26
2023/12/16 00:08:46;;;;;;;5.20;0.85;;;;;;;13.63;35.84;97412.97;5081343;28;20067;-25
2023/12/16 00:11:12;;;;;;;5.28;1.15;;;;;;;13.58;36.22;97410.75;5066196;28;20454;-25
2023/12/16 00:13:38;;;;;;;2.28;0.77;;;;;;;13.44;36.18;97423.91;5084617;28;20111;-26
2023/12/16 00:16:04;;;;;;;1.77;0.68;;;;;;;13.50;36.67;97436.59;5075697;28;20381;-26
2023/12/16 00:18:29;;;;;;;3.25;1.08;;;;;;;13.44;36.79;97421.19;5084390;28;20492;-26
2023/12/16 00:20:55;;;;;;;2.30;0.60;;;;;;;13.50;36.10;97435.84;5076125;28;20389;-26
2023/12/16 00:23:20;;;;;;;2.58;0.68;;;;;;;13.46;36.03;97437.88;5070106;28;20025;-25
2023/12/16 00:25:46;;;;;;;4.30;0.90;;;;;;;13.51;36.39;97435.41;5081176;28;20028;-26
2023/12/16 00:28:11;;;;;;;4.05;1.20;;;;;;;13.61;36.51;97436.38;5082047;28;20028;-26
2023/12/16 00:30:36;;;;;;;1.80;0.80;;;;;;;13.60;36.41;97445.75;5080050;28;20067;-26
2023/12/16 00:33:05;;;;;;;2.00;0.73;;;;;;;13.51;36.10;97459.94;5080832;28;20381;-27
2023/12/16 00:35:30;;;;;;;3.95;0.50;;;;;;;13.49;36.83;97454.13;5080688;28;20052;-25
2023/12/16 00:37:56;;;;;;;4.50;0.88;;;;;;;13.49;36.38;97453.38;5086052;28;20115;-25
2023/12/16 00:40:21;;;;;;;2.33;0.73;;;;;;;13.50;35.90;97447.50;5064067;28;20025;-26
2023/12/16 00:42:46;;;;;;;3.50;0.60;;;;;;;13.33;36.50;97448.66;5081071;28;20377;-26
2023/12/16 00:45:12;;;;;;;4.10;0.88;;;;;;;13.47;37.07;97458.50;5081017;28;20052;-25
2023/12/16 00:47:38;;;;;;;5.72;0.73;;;;;;;13.39;36.33;97457.84;5081499;28;20024;-26
2023/12/16 00:50:05;;;;;;;3.33;0.73;;;;;;;13.31;36.54;97461.91;5080550;28;20059;-25
2023/12/16 00:52:30;;;;;;;2.30;0.95;;;;;;;13.65;36.34;97475.25;5080817;28;20078;-26
2023/12/16 00:54:56;;;;;;;1.73;0.57;;;;;;;13.53;36.53;97473.91;5083599;28;20024;-25
2023/12/16 00:57:21;;;;;;;0.95;0.50;;;;;;;13.51;36.56;97464.63;5076757;28;20117;-26
2023/12/16 00:59:47;;;;;;;1.63;0.80;;;;;;;13.60;36.33;97468.31;5080681;28;20113;-25
2023/12/16 01:02:12;;;;;;;2.80;0.70;;;;;;;13.20;36.89;97483.91;5085498;28;20018;-26
2023/12/16 01:04:37;;;;;;;1.98;0.60;;;;;;;13.49;36.78;97480.63;5082755;28;20034;-25
2023/12/16 01:07:03;;;;;;;2.30;0.80;;;;;;;13.48;36.75;97479.09;5083302;28;20018;-26
2023/12/16 01:09:29;;;;;;;3.10;0.63;;;;;;;13.46;36.79;97470.59;5083301;28;20043;-25
2023/12/16 01:11:55;;;;;;;2.75;0.60;;;;;;;13.36;36.81;97490.59;5082006;28;20422;-26
2023/12/16 01:14:20;;;;;;;3.53;0.70;;;;;;;13.42;36.90;97478.03;5083997;28;20020;-26
2023/12/16 01:16:46;;;;;;;1.83;0.60;;;;;;;13.25;37.15;97480.69;5076437;28;20026;-25
2023/12/16 01:19:11;;;;;;;3.47;1.00;;;;;;;13.18;36.80;97486.28;5082444;28;20087;-26
2023/12/16 01:21:43;;;;;;;1.30;0.50;;;;;;;13.40;36.98;97492.09;5085290;28;20115;-26
2023/12/16 01:24:09;;;;;;;2.42;0.85;;;;;;;13.39;36.58;97501.44;5081215;28;20078;-26
2023/12/16 01:26:35;;;;;;;2.13;0.50;;;;;;;13.60;36.79;97502.97;5086479;28;20100;-26
2023/12/16 01:29:01;;;;;;;3.10;0.63;;;;;;;13.56;36.26;97513.19;5073126;28;20021;-26
2023/12/16 01:31:27;;;;;;;3.97;0.95;;;;;;;13.16;37.19;97520.56;5080229;28;20021;-26
2023/12/16 01:33:52;;;;;;;3.33;0.80;;;;;;;13.38;36.62;97520.94;5081147;28;20029;-26
2023/12/16 01:36:19;;;;;;;3.20;0.60;;;;;;;13.49;36.53;97522.25;5087634;28;20016;-26
2023/12/16 01:38:45;;;;;;;2.22;0.80;;;;;;;13.60;36.48;97513.88;5076864;28;20016;-25
2023/12/16 01:41:11;;;;;;;1.83;0.57;;;;;;;13.50;36.31;97523.03;5075534;28;20043;-26
2023/12/16 01:43:36;;;;;;;2.17;0.52;;;;;;;13.46;36.22;97523.13;5080848;28;20028;-25
2023/12/16 01:46:04;;;;;;;2.83;0.80;;;;;;;13.36;35.88;97529.53;5080543;28;20139;-25
2023/12/16 01:48:32;;;;;;;2.13;0.52;;;;;;;13.27;35.60;97516.47;5081824;28;20048;-26
2023/12/16 01:50:57;;;;;;;6.28;0.77;;;;;;;13.33;35.75;97521.44;5083770;28;20125;-25
2023/12/16 01:53:26;;;;;;;2.45;0.50;;;;;;;13.41;34.76;97488.19;5076055;28;20429;-25
2023/12/16 01:55:52;;;;;;;2.25;0.65;;;;;;;13.39;35.00;97515.06;5084181;28;20020;-25
2023/12/16 01:58:17;;;;;;;2.45;0.55;;;;;;;13.12;35.05;97498.03;5082647;28;20016;-26
2023/12/16 02:00:45;;;;;;;1.25;0.50;;;;;;;13.27;35.08;97494.66;5084744;28;20027;-25
2023/12/16 02:03:14;;;;;;;1.25;0.60;;;;;;;13.29;35.14;97491.53;5080758;28;20031;-25
2023/12/16 02:05:39;;;;;;;3.35;0.80;;;;;;;13.17;35.30;97487.47;5085991;28;20059;-25
2023/12/16 02:08:05;;;;;;;3.80;0.50;;;;;;;13.03;35.89;97495.84;5078969;28;20473;-25
2023/12/16 02:10:31;;;;;;;1.65;0.55;;;;;;;13.23;35.79;97487.72;5080517;28;20108;-25
2023/12/16 02:12:56;;;;;;;2.38;0.70;;;;;;;13.16;36.15;97499.53;5084423;28;20024;-26
2023/12/16 02:15:21;;;;;;;2.00;0.63;;;;;;;13.16;36.04;97499.53;5081839;28;20021;-26
2023/12/16 02:17:47;;;;;;;2.65;0.80;;;;;;;13.21;36.13;97496.34;5090682;28;20020;-25
2023/12/16 02:20:13;;;;;;;2.75;0.73;;;;;;;13.27;35.69;97494.66;5078464;28;20017;-26
2023/12/16 02:22:39;;;;;;;2.30;0.80;;;;;;;13.14;35.94;97488.28;5081334;28;20025;-25
2023/12/16 02:25:09;;;;;;;2.45;0.60;;;;;;;13.29;36.20;97499.69;5083312;28;20094;-26
2023/12/16 02:27:34;;;;;;;3.72;0.80;;;;;;;13.33;36.25;97507.81;5087868;28;20012;-26
2023/12/16 02:30:00;;;;;;;4.30;0.80;;;;;;;13.30;36.08;97509.41;5085790;28;20510;-26
2023/12/16 02:32:25;;;;;;;3.40;0.90;;;;;;;12.96;37.02;97506.88;5083011;28;21255;-26
2023/12/16 02:34:51;;;;;;;3.63;0.88;;;;;;;13.29;36.60;97505.91;5081512;28;20027;-26
2023/12/16 02:37:16;;;;;;;5.40;0.65;;;;;;;13.10;36.80;97500.44;5085036;28;20358;-26
2023/12/16 02:39:41;;;;;;;5.95;1.00;;;;;;;13.23;36.49;97498.63;5080024;28;20053;-26
2023/12/16 02:42:07;;;;;;;5.05;0.90;;;;;;;13.17;37.00;97501.09;5085967;28;20045;-26
2023/12/16 02:44:33;;;;;;;5.15;1.55;;;;;;;13.25;37.35;97510.66;5077428;28;20029;-26
2023/12/16 02:46:58;;;;;;;3.30;0.82;;;;;;;13.32;37.01;97515.22;5086080;28;20104;-26
2023/12/16 02:49:24;;;;;;;4.03;1.00;;;;;;;13.30;36.80;97523.81;5077901;28;20036;-26
2023/12/16 02:51:49;;;;;;;2.53;0.50;;;;;;;13.23;37.41;97513.03;5086495;28;20036;-27
2023/12/16 02:54:14;;;;;;;2.50;0.73;;;;;;;13.17;37.44;97520.16;5086131;28;20027;-26
2023/12/16 02:56:40;;;;;;;1.65;0.50;;;;;;;13.16;37.53;97531.47;5084804;28;20024;-26
2023/12/16 02:59:05;;;;;;;1.27;0.60;;;;;;;13.13;37.46;97540.41;5084975;28;20020;-25
2023/12/16 03:01:31;;;;;;;3.65;0.73;;;;;;;12.86;37.97;97548.66;5085348;28;20069;-25
2023/12/16 03:03:56;;;;;;;1.17;0.70;;;;;;;13.17;37.34;97536.50;5085267;28;20024;-25
2023/12/16 03:06:21;;;;;;;1.90;0.63;;;;;;;13.05;37.78;97539.78;5086359;28;20046;-25
2023/12/16 03:08:47;;;;;;;2.85;1.10;;;;;;;12.82;37.61;97535.13;5077541;28;20107;-25
2023/12/16 03:11:13;;;;;;;3.05;1.20;;;;;;;13.01;37.07;97528.19;5067459;28;20012;-25
2023/12/16 03:13:38;;;;;;;3.25;0.73;;;;;;;12.79;37.58;97497.06;5085975;28;20470;-26
2023/12/16 03:16:04;;;;;;;4.38;0.98;;;;;;;13.10;36.71;97522.22;5077672;28;20035;-25
2023/12/16 03:18:29;;;;;;;1.75;0.70;;;;;;;13.19;36.64;97512.34;5087766;28;20028;-26
2023/12/16 03:20:55;;;;;;;2.42;0.80;;;;;;;13.04;36.70;97504.78;5082786;28;20074;-25
2023/12/16 03:23:20;;;;;;;4.75;1.75;;;;;;;12.93;36.43;97511.19;5081727;28;20052;-25
2023/12/16 03:25:46;;;;;;;3.63;0.60;;;;;;;13.04;36.99;97500.13;5088340;28;20024;-25
2023/12/16 03:28:11;;;;;;;1.95;0.63;;;;;;;13.03;36.22;97482.25;5082690;28;20489;-26
2023/12/16 03:30:40;;;;;;;1.73;0.60;;;;;;;12.87;36.67;97485.63;5086626;28;20115;-25
2023/12/16 03:33:09;;;;;;;3.10;0.88;;;;;;;13.21;36.26;97490.13;5077335;28;20036;-26
2023/12/16 03:35:34;;;;;;;2.15;1.00;;;;;;;13.00;36.45;97488.50;5078619;28;20062;-26
2023/12/16 03:38:00;;;;;;;2.47;0.60;;;;;;;13.09;36.49;97475.16;5085363;28;20020;-25
2023/12/16 03:40:26;;;;;;;2.55;0.70;;;;;;;13.03;36.49;97478.75;5082509;28;20035;-25
2023/12/16 03:42:52;;;;;;;4.28;0.82;;;;;;;13.14;36.71;97457.53;5074410;28;20551;-26
2023/12/16 03:45:17;;;;;;;2.83;0.70;;;;;;;13.19;36.37;97460.59;5081702;28;20028;-26
2023/12/16 03:47:42;;;;;;;2.10;0.80;;;;;;;12.95;36.95;97429.88;5082205;28;20038;-25
2023/12/16 03:50:08;;;;;;;4.15;0.65;;;;;;;13.08;36.42;97437.44;5080055;28;20389;-25
2023/12/16 03:52:34;;;;;;;3.17;0.90;;;;;;;12.86;36.73;97437.03;5076073;28;20461;-26
2023/12/16 03:55:03;;;;;;;2.55;0.60;;;;;;;13.03;36.58;97443.34;5080473;28;20028;-25
2023/12/16 03:57:33;;;;;;;2.35;0.80;;;;;;;12.86;36.82;97453.38;5088570;28;20024;-26
2023/12/16 03:59:59;;;;;;;2.97;0.80;;;;;;;12.91;36.63;97470.00;5081098;28;20020;-26
2023/12/16 04:02:25;;;;;;;3.72;0.65;;;;;;;13.06;36.60;97473.25;5081113;28;20457;-25
2023/12/16 04:04:50;;;;;;;1.77;0.75;;;;;;;12.75;36.51;97459.00;5081426;28;20057;-26
2023/12/16 04:07:16;;;;;;;3.28;0.85;;;;;;;13.06;36.66;97473.25;5086270;28;20386;-26
2023/12/16 04:09:41;;;;;;;4.93;0.90;;;;;;;13.02;36.32;97472.53;5083455;28;20031;-26
2023/12/16 04:12:07;;;;;;;2.72;0.60;;;;;;;13.15;35.73;97459.88;5073859;28;20465;-26
2023/12/16 04:14:39;;;;;;;3.78;0.77;;;;;;;13.07;35.89;97474.78;5081498;28;20020;-26
2023/12/16 04:17:05;;;;;;;3.53;0.88;;;;;;;13.04;36.08;97472.88;5080789;28;20032;-26
2023/12/16 04:19:31;;;;;;;3.63;0.55;;;;;;;12.97;36.35;97488.59;5081042;28;20481;-26
2023/12/16 04:21:56;;;;;;;3.15;0.60;;;;;;;12.95;35.81;97489.00;5073568;28;20028;-26
2023/12/16 04:24:22;;;;;;;2.00;0.70;;;;;;;12.98;35.63;97482.75;5081244;28;20486;-25
2023/12/16 04:26:47;;;;;;;1.35;0.50;;;;;;;12.92;36.32;97500.72;5080920;28;20081;-25
2023/12/16 04:29:13;;;;;;;1.63;0.60;;;;;;;12.91;35.75;97488.28;5081101;28;20032;-25
2023/12/16 04:31:39;;;;;;;3.72;0.68;;;;;;;12.93;35.37;97491.38;5077873;28;20109;-25
2023/12/16 04:34:05;;;;;;;1.73;0.68;;;;;;;12.86;35.59;97475.16;5083614;28;20043;-26
2023/12/16 04:36:30;;;;;;;2.38;0.52;;;;;;;13.09;35.52;97488.00;5076039;28;20992;-26
2023/12/16 04:38:56;;;;;;;4.40;0.88;;;;;;;13.13;35.53;97483.22;5078556;28;20362;-26
2023/12/16 04:41:21;;;;;;;1.98;0.73;;;;;;;12.91;35.71;97467.28;5082031;28;20023;-25
2023/12/16 04:43:47;;;;;;;2.83;1.15;;;;;;;12.28;36.41;97485.41;5083808;28;20027;-26
2023/12/16 04:46:12;;;;;;;2.92;1.00;;;;;;;12.99;35.40;97486.19;5083581;28;20056;-25
2023/12/16 04:48:38;;;;;;;2.90;0.63;;;;;;;13.03;35.74;97484.97;5073377;28;20027;-25
2023/12/16 04:51:05;;;;;;;2.28;0.70;;;;;;;12.83;35.89;97481.44;5081167;28;20158;-26
2023/12/16 04:53:31;;;;;;;2.40;0.50;;;;;;;12.87;35.68;97493.03;5080408;28;20088;-26
2023/12/16 04:55:57;;;;;;;1.58;0.60;;;;;;;13.08;35.08;97492.66;5080794;28;20028;-25
2023/12/16 04:58:22;;;;;;;2.72;0.70;;;;;;;12.92;35.57;97501.50;5079845;28;20058;-25
2023/12/16 05:00:48;;;;;;;4.60;0.88;;;;;;;12.90;35.24;97503.09;5080577;28;20020;-26
2023/12/16 05:03:13;;;;;;;1.73;0.55;;;;;;;13.05;35.40;97509.84;5077938;28;20016;-26
2023/12/16 05:05:38;;;;;;;2.13;0.50;;;;;;;13.07;35.10;97512.91;5083045;28;20020;-26
2023/12/16 05:08:04;;;;;;;1.65;0.40;;;;;;;12.86;35.53;97515.97;5076542;28;20454;-25
2023/12/16 05:10:30;;;;;;;2.78;0.63;;;;;;;12.94;34.85;97512.75;5083317;28;20110;-25
2023/12/16 05:12:55;;;;;;;2.25;0.60;;;;;;;12.93;35.06;97503.03;5074971;28;20073;-26
2023/12/16 05:15:21;;;;;;;1.27;0.57;;;;;;;12.92;35.30;97501.50;5078898;28;20347;-25
2023/12/16 05:17:46;;;;;;;3.95;1.25;;;;;;;12.89;34.74;97501.53;5080476;28;20031;-26
2023/12/16 05:20:12;;;;;;;2.17;0.80;;;;;;;12.51;35.38;97503.72;5080673;28;20015;-25
2023/12/16 05:22:37;;;;;;;2.38;0.70;;;;;;;12.77;34.49;97505.63;5086967;28;20020;-26
2023/12/16 05:25:04;;;;;;;4.10;0.77;;;;;;;12.84;35.06;97499.31;5086236;28;20020;-26
2023/12/16 05:27:30;;;;;;;2.15;0.70;;;;;;;13.01;34.11;97503.66;5084554;28;20031;-25
2023/12/16 05:29:57;;;;;;;2.15;0.57;;;;;;;12.81;34.73;97516.47;5084602;28;20024;-26
2023/12/16 05:32:22;;;;;;;3.75;1.00;;;;;;;13.01;34.85;97509.13;5086220;28;20028;-26
2023/12/16 05:34:51;;;;;;;2.35;0.80;;;;;;;13.02;34.73;97504.44;5089717;28;20462;-25
2023/12/16 05:37:17;;;;;;;2.30;0.70;;;;;;;12.98;34.87;97512.69;5077490;28;20114;-26
2023/12/16 05:39:42;;;;;;;2.38;0.70;;;;;;;13.10;34.26;97517.53;5080679;28;20418;-25
2023/12/16 05:42:08;;;;;;;2.08;0.70;;;;;;;13.05;34.35;97509.06;5087256;28;20016;-25
2023/12/16 05:44:33;;;;;;;2.47;0.60;;;;;;;12.92;34.86;97514.34;5091844;28;20111;-26
2023/12/16 05:46:59;;;;;;;3.33;0.60;;;;;;;12.49;35.51;97515.00;5084718;28;20166;-26
2023/12/16 05:49:25;;;;;;;1.30;0.60;;;;;;;13.02;34.86;97532.44;5084524;28;20020;-26
2023/12/16 05:51:50;;;;;;;2.22;0.80;;;;;;;13.13;34.11;97532.25;5084081;28;20036;-25
2023/12/16 05:54:16;;;;;;;2.65;0.65;;;;;;;12.79;34.90;97521.56;5090670;28;20012;-26
2023/12/16 05:56:41;;;;;;;3.38;0.80;;;;;;;12.94;35.00;97520.16;5084506;28;20027;-26
2023/12/16 05:59:07;;;;;;;2.67;0.80;;;;;;;13.02;35.12;97521.56;5083888;28;20059;-25
2023/12/16 06:01:32;;;;;;;2.97;0.82;;;;;;;12.70;35.59;97537.66;5083679;28;20012;-25
2023/12/16 06:03:58;;;;;;;2.05;0.70;;;;;;;12.96;34.84;97534.13;5086792;28;20031;-26
2023/12/16 06:06:23;;;;;;;1.50;0.60;;;;;;;12.77;35.15;97523.91;5081365;28;20044;-25
2023/12/16 06:08:50;;;;;;;4.72;0.80;;;;;;;13.08;35.08;97519.91;5083844;28;20024;-25
2023/12/16 06:11:15;;;;;;;2.85;0.52;;;;;;;12.94;34.93;97517.41;5086355;28;20070;-26
2023/12/16 06:13:41;;;;;;;2.60;0.60;;;;;;;13.10;35.06;97525.72;5086424;28;20017;-26
2023/12/16 06:16:10;;;;;;;4.07;0.68;;;;;;;12.88;35.29;97514.38;5084383;28;20028;-25
2023/12/16 06:18:35;;;;;;;2.35;0.52;;;;;;;12.97;34.98;97524.00;5082216;28;20019;-25
2023/12/16 06:21:01;;;;;;;2.17;0.57;;;;;;;12.60;35.97;97547.53;5078267;28;20021;-25
2023/12/16 06:23:29;;;;;;;1.13;0.50;;;;;;;12.63;35.64;97543.19;5086387;28;20397;-25
2023/12/16 06:25:55;;;;;;;1.13;0.40;;;;;;;12.62;35.56;97547.09;5078443;28;20028;-25
2023/12/16 06:28:20;;;;;;;3.72;0.50;;;;;;;12.65;35.23;97562.59;5077999;28;20027;-25
2023/12/16 06:30:45;;;;;;;1.38;0.47;;;;;;;13.01;34.90;97581.88;5086792;28;20035;-25
2023/12/16 06:33:11;;;;;;;3.33;0.80;;;;;;;13.06;35.23;97587.63;5077445;28;20027;-25
2023/12/16 06:35:36;;;;;;;1.83;0.55;;;;;;;13.00;35.27;97589.28;5086693;28;20027;-26
2023/12/16 06:38:02;;;;;;;2.72;0.60;;;;;;;12.92;35.32;97569.56;5079094;28;20051;-25
2023/12/16 06:40:27;;;;;;;2.05;0.52;;;;;;;12.91;35.20;97572.69;5083114;28;20020;-25
2023/12/16 06:42:54;;;;;;;3.00;0.63;;;;;;;13.00;35.64;97589.28;5082970;28;20024;-25
2023/12/16 06:45:19;;;;;;;4.05;0.70;;;;;;;13.03;35.29;97590.41;5083479;28;20024;-25
2023/12/16 06:47:45;;;;;;;2.67;0.80;;;;;;;12.93;35.45;97605.72;5082881;28;20527;-25
2023/12/16 06:50:10;;;;;;;3.33;0.98;;;;;;;13.13;35.09;97612.00;5082159;28;20044;-26
2023/12/16 06:52:36;;;;;;;5.68;0.77;;;;;;;13.13;35.42;97603.84;5077387;28;20036;-26
2023/12/16 06:55:03;;;;;;;5.30;0.68;;;;;;;13.00;35.79;97605.59;5088695;28;20044;-26
2023/12/16 06:57:28;;;;;;;3.30;1.05;;;;;;;12.92;35.92;97615.06;5075094;28;20363;-25
2023/12/16 06:59:54;;;;;;;3.88;0.80;;;;;;;12.92;35.62;97610.41;5085632;28;20016;-25
2023/12/16 07:02:20;;;;;;;4.07;1.30;;;;;;;13.09;35.55;97603.16;5080631;28;20435;-25
2023/12/16 07:04:45;;;;;;;2.45;1.10;;;;;;;13.06;35.63;97603.97;5083168;28;20025;-25
2023/12/16 07:07:11;;;;;;;3.85;1.52;;;;;;;12.94;36.02;97612.72;5081545;28;20027;-25
2023/12/16 07:09:36;;;;;;;4.78;1.05;;;;;;;13.06;36.34;97603.97;5064125;28;20450;-25
2023/12/16 07:12:02;;;;;;;3.97;0.90;;;;;;;12.88;35.85;97606.97;5082764;28;20495;-26
2023/12/16 07:14:28;;;;;;;2.30;0.95;;;;;;;13.11;35.46;97613.59;5082045;28;20024;-26
2023/12/16 07:16:55;;;;;;;1.23;0.47;;;;;;;12.88;35.87;97620.56;5082411;28;20032;-26
2023/12/16 07:19:20;;;;;;;2.45;0.68;;;;;;;13.16;35.52;97633.00;5082005;28;20056;-25
2023/12/16 07:21:46;;;;;;;1.40;0.50;;;;;;;12.90;35.45;97637.28;5081931;28;20071;-25
2023/12/16 07:24:11;;;;;;;1.83;0.70;;;;;;;13.00;35.48;97632.06;5082054;28;20398;-25
2023/12/16 07:26:37;;;;;;;2.00;0.77;;;;;;;12.94;35.81;97645.41;5080317;28;20015;-25
2023/12/16 07:29:02;;;;;;;3.75;0.70;;;;;;;13.06;35.65;97647.53;5084379;28;20103;-25
2023/12/16 07:31:29;;;;;;;1.33;0.70;;;;;;;13.03;35.50;97648.34;5081542;28;20021;-25
2023/12/16 07:33:55;;;;;;;2.47;0.90;;;;;;;12.90;35.86;97648.16;5081826;28;20025;-25
2023/12/16 07:36:20;;;;;;;2.53;1.00;;;;;;;13.12;36.20;97651.31;5088948;28;20501;-26
2023/12/16 07:38:45;;;;;;;1.92;0.95;;;;;;;12.89;36.22;97657.50;5086368;28;20024;-25
2023/12/16 07:41:11;;;;;;;2.08;0.70;;;;;;;12.94;35.99;97667.19;5084366;28;20021;-25
2023/12/16 07:43:38;;;;;;;1.02;0.52;;;;;;;12.94;36.09;97646.16;5074742;28;20042;-25
2023/12/16 07:46:05;;;;;;;2.50;0.47;;;;;;;12.94;35.98;97634.50;5081180;28;20082;-25
2023/12/16 07:48:30;;;;;;;2.03;0.63;;;;;;;12.63;36.12;97662.94;5081443;28;20058;-25
2023/12/16 07:50:56;;;;;;;1.40;0.50;;;;;;;12.94;35.94;97656.28;5080852;28;20449;-25
2023/12/16 07:53:21;;;;;;;1.88;0.90;;;;;;;12.92;35.84;97664.88;5081794;28;20385;-25
2023/12/16 07:55:47;;;;;;;0.82;0.40;;;;;;;13.02;35.76;97676.78;5084425;28;20031;-26
2023/12/16 07:58:14;;;;;;;1.00;0.60;;;;;;;13.12;35.25;97673.09;5084906;28;20102;-26
2023/12/16 08:00:40;;;;;;;1.52;0.50;;;;;;;13.13;35.77;97674.66;5064685;28;20024;-25
2023/12/16 08:03:06;;;;;;;2.25;0.65;;;;;;;13.06;35.78;97663.09;5077701;28;20104;-26
2023/12/16 08:05:32;;;;;;;1.15;0.55;;;;;;;13.09;35.83;97682.13;5077836;28;20367;-26
2023/12/16 08:07:58;;;;;;;1.77;0.52;;;;;;;13.08;35.63;97683.31;5073963;28;20031;-25
2023/12/16 08:10:23;;;;;;;1.77;0.63;;;;;;;13.02;35.81;97679.50;5081040;28;20021;-26
2023/12/16 08:12:49;;;;;;;3.92;0.70;;;;;;;13.20;35.64;97688.22;5088381;28;20054;-26
2023/12/16 08:15:15;;;;;;;1.52;0.60;;;;;;;12.86;36.58;97682.06;5081127;28;20020;-25
2023/12/16 08:17:41;;;;;;;1.23;0.70;;;;;;;12.86;36.07;97679.34;5088018;28;20568;-25
2023/12/16 08:20:07;;;;;;;0.77;0.50;;;;;;;13.09;36.20;97682.13;5082832;28;20024;-25
2023/12/16 08:22:33;;;;;;;4.03;0.60;;;;;;;12.91;36.48;97687.06;5066769;28;20111;-25
2023/12/16 08:24:58;;;;;;;1.80;0.60;;;;;;;13.03;36.45;97696.59;5082967;28;20032;-25
2023/12/16 08:27:24;;;;;;;0.88;0.47;;;;;;;13.27;36.13;97700.94;5084328;28;20027;-25
2023/12/16 08:29:50;;;;;;;1.10;0.60;;;;;;;13.15;36.51;97688.66;5083924;28;20520;-25
2023/12/16 08:32:16;;;;;;;1.73;0.50;;;;;;;13.22;36.57;97687.81;5081919;28;20028;-26
2023/12/16 08:34:41;;;;;;;0.60;0.40;;;;;;;13.10;36.26;97697.28;5073836;28;20113;-25
2023/12/16 08:37:07;;;;;;;1.17;0.50;;;;;;;13.18;36.19;97700.69;5080721;28;20077;-25
2023/12/16 08:39:32;;;;;;;2.20;0.50;;;;;;;13.16;36.25;97701.09;5088298;28;20059;-25
2023/12/16 08:41:58;;;;;;;1.60;0.50;;;;;;;13.39;36.34;97697.63;5079073;28;20016;-26
2023/12/16 08:44:23;;;;;;;1.98;0.50;;;;;;;13.38;36.23;97707.00;5082491;28;20028;-25
2023/12/16 08:46:49;;;;;;;2.50;0.65;;;;;;;13.27;36.25;97695.50;5076892;28;20458;-26
2023/12/16 08:49:14;;;;;;;0.95;0.50;;;;;;;13.37;36.31;97701.94;5077183;28;20464;-25
2023/12/16 08:51:40;;;;;;;2.17;0.60;;;;;;;13.34;36.68;97727.31;5080508;28;20064;-25
2023/12/16 08:54:05;;;;;;;1.65;1.40;;;;;;;13.45;36.86;97708.84;5080767;28;20047;-25
2023/12/16 08:56:31;;;;;;;2.58;0.90;;;;;;;13.65;36.19;97705.00;5080280;28;20070;-25
2023/12/16 08:58:56;;;;;;;2.03;0.70;;;;;;;16.20;32.14;97694.34;5075509;28;20015;-25
2023/12/16 09:01:22;;;;;;;3.58;0.50;;;;;;;19.79;26.63;97699.34;5077455;28;20449;-26
2023/12/16 09:03:47;;;;;;;2.53;0.75;;;;;;;21.74;23.28;97682.97;5080899;28;20076;-25
2023/12/16 09:06:13;;;;;;;1.48;0.75;;;;;;;21.86;23.30;97690.25;5080542;28;20028;-26
2023/12/16 09:08:38;;;;;;;1.33;0.70;;;;;;;22.69;22.15;97695.84;5080404;28;20098;-26
2023/12/16 09:11:04;;;;;;;2.00;0.60;;;;;;;22.91;22.03;97678.88;5080646;28;20016;-26
2023/12/16 09:13:30;;;;;;;0.80;0.50;;;;;;;24.37;20.21;97668.50;5078614;28;20084;-25
2023/12/16 09:16:02;;;;;;;2.10;0.90;;;;;;;24.80;19.91;97671.44;5075223;28;20024;-26
2023/12/16 09:18:27;;;;;;;2.65;0.60;;;;;;;24.96;19.46;97673.63;5083781;28;20458;-26
2023/12/16 09:20:53;;;;;;;3.35;1.05;;;;;;;25.73;18.70;97670.56;5074816;28;20024;-26
2023/12/16 09:23:18;;;;;;;2.67;0.80;;;;;;;25.78;18.19;97685.75;5087797;28;20046;-26
2023/12/16 09:25:44;;;;;;;1.23;0.50;;;;;;;25.33;18.88;97677.16;5078933;28;20053;-26
2023/12/16 09:28:09;;;;;;;1.90;0.60;;;;;;;25.87;18.30;97679.22;5074609;28;20032;-26
2023/12/16 09:30:35;;;;;;;2.70;0.57;;;;;;;26.45;17.84;97681.22;5079333;28;20031;-26
2023/12/16 09:33:00;;;;;;;2.15;0.70;;;;;;;25.36;18.54;97673.38;5087456;28;20027;-26
2023/12/16 09:35:26;;;;;;;1.35;0.80;;;;;;;25.94;18.28;97684.31;5080495;28;20020;-26
2023/12/16 09:37:52;;;;;;;1.55;0.70;;;;;;;25.00;19.02;97668.59;5080484;28;20028;-26
2023/12/16 09:40:18;;;;;;;1.98;0.75;;;;;;;21.93;22.22;97664.25;5081006;28;20031;-26
2023/12/16 09:42:49;;;;;;;2.30;1.17;;;;;;;18.61;26.59;97681.19;5082967;28;20433;-27
2023/12/16 09:45:15;;;;;;;2.15;0.60;;;;;;;17.41;29.28;97677.88;5083000;28;20027;-26
2023/12/16 09:47:42;;;;;;;2.92;0.98;;;;;;;16.66;30.28;97679.41;5083052;28;20013;-27
2023/12/16 09:50:10;;;;;;;1.15;0.80;;;;;;;16.29;30.98;97683.56;5084298;28;20056;-28
2023/12/16 09:52:35;;;;;;;2.08;0.95;;;;;;;15.68;31.99;97717.22;5080910;28;20056;-27
2023/12/16 09:55:01;;;;;;;1.50;0.70;;;;;;;15.62;32.63;97681.41;5086328;28;20055;-26
2023/12/16 09:57:28;;;;;;;2.42;0.70;;;;;;;15.23;32.71;97687.78;5080137;28;20074;-26
2023/12/16 09:59:55;;;;;;;1.13;0.70;;;;;;;15.23;33.65;97678.81;5080270;28;20020;-26
2023/12/16 10:02:29;;;;;;;1.95;0.77;;;;;;;15.15;33.76;97680.97;5085921;28;20529;-26
2023/12/16 10:04:58;;;;;;;1.05;0.65;;;;;;;14.96;34.17;97687.25;5080279;28;20032;-26
2023/12/16 10:07:25;;;;;;;1.48;0.70;;;;;;;14.71;34.79;97674.91;5080474;28;20016;-26
2023/12/16 10:09:50;;;;;;;1.70;0.70;;;;;;;14.66;34.99;97689.06;5082488;28;20020;-26
2023/12/16 10:12:18;;;;;;;1.17;0.60;;;;;;;14.43;35.32;97680.19;5087818;28;20522;-28
2023/12/16 10:14:50;;;;;;;1.23;0.60;;;;;;;14.41;35.60;97683.34;5086643;28;20024;-26
2023/12/16 10:17:17;;;;;;;1.88;0.52;;;;;;;14.37;35.63;97677.16;5083871;28;20517;-26
2023/12/16 10:19:44;;;;;;;1.70;0.70;;;;;;;14.32;35.64;97680.41;5083700;28;20111;-26
2023/12/16 10:22:12;;;;;;;1.30;0.70;;;;;;;14.30;36.01;97691.72;5085225;28;20024;-26
2023/12/16 10:24:37;;;;;;;1.48;0.70;;;;;;;13.94;36.11;97666.31;5086610;28;20040;-26
2023/12/16 10:27:04;;;;;;;1.20;0.63;;;;;;;14.38;35.57;97684.16;5078226;28;20103;-26
2023/12/16 10:29:32;;;;;;;1.17;0.43;;;;;;;14.22;35.99;97671.22;5086038;28;20106;-26
2023/12/16 10:31:57;;;;;;;2.05;0.60;;;;;;;14.22;35.81;97670.44;5086442;28;20024;-26
2023/12/16 10:34:24;;;;;;;1.02;0.60;;;;;;;14.15;36.33;97663.16;5084653;28;20021;-26
2023/12/16 10:36:49;;;;;;;2.15;0.70;;;;;;;14.06;35.97;97656.75;5088540;28;20029;-25
2023/12/16 10:39:15;;;;;;;2.47;1.02;;;;;;;14.09;36.09;97664.88;5083822;28;20024;-26
2023/12/16 10:41:40;;;;;;;1.13;0.70;;;;;;;13.94;36.02;97661.63;5083287;28;20035;-26
2023/12/16 10:44:05;;;;;;;3.28;0.93;;;;;;;13.93;35.69;97659.31;5089899;28;20024;-26
2023/12/16 10:46:36;;;;;;;1.92;0.73;;;;;;;14.10;35.64;97662.88;5077380;28;20519;-26
2023/12/16 10:49:02;;;;;;;2.58;0.60;;;;;;;13.99;35.80;97669.31;5086182;28;20026;-26
2023/12/16 10:51:29;;;;;;;6.38;1.15;;;;;;;13.94;35.68;97667.09;5066357;28;20127;-25
2023/12/16 10:54:21;;;;;;;3.75;0.80;;;;;;;13.81;35.99;97657.97;5075781;28;20082;-26
2023/12/16 10:56:58;;;;;;;3.60;1.10;;;;;;;13.99;35.75;97674.78;5077832;28;20028;-26
2023/12/16 10:59:35;;;;;;;2.78;0.95;;;;;;;13.99;36.25;97660.34;5085633;28;20483;-26
2023/12/16 11:02:04;;;;;;;4.65;1.30;;;;;;;13.97;35.84;97638.97;5082693;28;20021;-26
2023/12/16 11:04:34;;;;;;;3.67;1.67;;;;;;;14.00;36.02;97651.75;5082037;28;20453;-25
2023/12/16 11:07:06;;;;;;;3.22;1.98;;;;;;;13.94;36.26;97650.72;5085562;28;20043;-26
2023/12/16 11:09:33;;;;;;;4.22;1.40;;;;;;;13.92;36.02;97653.09;5079390;28;20016;-26
2023/12/16 11:12:01;;;;;;;3.72;1.40;;;;;;;13.93;36.23;97648.41;5084003;28;20068;-26
2023/12/16 11:14:29;;;;;;;3.03;1.23;;;;;;;13.95;36.22;97657.72;5085500;28;20020;-26
2023/12/16 11:16:57;;;;;;;2.60;1.08;;;;;;;13.85;36.38;97647.00;5083292;28;20032;-26
2023/12/16 11:19:28;;;;;;;5.35;0.93;;;;;;;13.98;36.81;97659.59;5082276;28;20020;-26
2023/12/16 11:21:54;;;;;;;3.28;1.52;;;;;;;13.94;36.67;97650.72;5081252;28;20020;-25
2023/12/16 11:24:19;;;;;;;4.75;1.10;;;;;;;13.79;36.76;97657.63;5082742;28;20020;-26
2023/12/16 11:26:50;;;;;;;4.38;1.10;;;;;;;13.96;36.64;97655.75;5080821;28;20073;-25
2023/12/16 11:29:22;;;;;;;5.15;1.50;;;;;;;13.94;36.64;97634.38;5081948;28;20093;-26